sensor_id;sensor_type;location;lat;lon;timestamp;P1;durP1;ratioP1;P2;durP2;ratioP2
7989;SDS011;4040;42.848;23.034;2022-10-22T00:01:34;19.23;;;11.80;;
7989;SDS011;4040;42.848;23.034;2022-10-22T00:07:44;24.93;;;14.40;;
7989;SDS011;4040;42.848;23.034;2022-10-22T00:13:34;22.80;;;13.33;;
7989;SDS011;4040;42.848;23.034;2022-10-22T00:19:23;29.93;;;14.60;;
7989;SDS011;4040;42.848;23.034;2022-10-22T00:25:12;20.07;;;11.63;;
7989;SDS011;4040;42.848;23.034;2022-10-22T00:31:02;19.60;;;11.37;;
7989;SDS011;4040;42.848;23.034;2022-10-22T00:36:51;18.50;;;11.63;;
7989;SDS011;4040;42.848;23.034;2022-10-22T00:42:40;26.00;;;11.83;;
7989;SDS011;4040;42.848;23.034;2022-10-22T00:48:31;27.10;;;13.80;;
7989;SDS011;4040;42.848;23.034;2022-10-22T00:54:20;19.43;;;12.47;;
7989;SDS011;4040;42.848;23.034;2022-10-22T01:00:09;17.13;;;11.23;;
7989;SDS011;4040;42.848;23.034;2022-10-22T01:10:04;18.23;;;11.83;;
7989;SDS011;4040;42.848;23.034;2022-10-22T01:16:04;22.43;;;12.90;;
7989;SDS011;4040;42.848;23.034;2022-10-22T01:21:59;16.90;;;10.83;;
7989;SDS011;4040;42.848;23.034;2022-10-22T01:28:00;25.83;;;14.37;;
7989;SDS011;4040;42.848;23.034;2022-10-22T01:33:58;16.80;;;11.13;;
7989;SDS011;4040;42.848;23.034;2022-10-22T01:39:48;17.43;;;11.87;;
7989;SDS011;4040;42.848;23.034;2022-10-22T01:45:38;17.70;;;11.63;;
7989;SDS011;4040;42.848;23.034;2022-10-22T01:51:36;19.77;;;12.57;;
7989;SDS011;4040;42.848;23.034;2022-10-22T01:57:39;20.03;;;12.03;;
7989;SDS011;4040;42.848;23.034;2022-10-22T02:03:34;18.40;;;12.60;;
7989;SDS011;4040;42.848;23.034;2022-10-22T02:13:51;17.70;;;11.17;;
7989;SDS011;4040;42.848;23.034;2022-10-22T02:19:45;20.07;;;11.60;;
7989;SDS011;4040;42.848;23.034;2022-10-22T02:25:39;28.33;;;15.03;;
7989;SDS011;4040;42.848;23.034;2022-10-22T02:31:33;19.83;;;11.83;;
7989;SDS011;4040;42.848;23.034;2022-10-22T02:37:25;20.87;;;12.30;;
7989;SDS011;4040;42.848;23.034;2022-10-22T02:43:16;21.10;;;11.33;;
7989;SDS011;4040;42.848;23.034;2022-10-22T02:49:07;22.43;;;12.10;;
7989;SDS011;4040;42.848;23.034;2022-10-22T02:54:55;18.47;;;11.40;;
7989;SDS011;4040;42.848;23.034;2022-10-22T03:00:44;19.67;;;11.43;;
7989;SDS011;4040;42.848;23.034;2022-10-22T03:06:34;20.30;;;13.13;;
7989;SDS011;4040;42.848;23.034;2022-10-22T03:16:45;20.13;;;13.37;;
7989;SDS011;4040;42.848;23.034;2022-10-22T03:22:35;19.33;;;12.27;;
7989;SDS011;4040;42.848;23.034;2022-10-22T03:28:27;24.73;;;13.43;;
7989;SDS011;4040;42.848;23.034;2022-10-22T03:34:16;18.90;;;12.10;;
7989;SDS011;4040;42.848;23.034;2022-10-22T03:40:07;19.63;;;11.73;;
7989;SDS011;4040;42.848;23.034;2022-10-22T03:45:57;24.23;;;14.07;;
7989;SDS011;4040;42.848;23.034;2022-10-22T03:51:45;20.67;;;12.00;;
7989;SDS011;4040;42.848;23.034;2022-10-22T03:57:35;21.97;;;11.93;;
7989;SDS011;4040;42.848;23.034;2022-10-22T04:03:24;28.30;;;14.83;;
7989;SDS011;4040;42.848;23.034;2022-10-22T04:09:13;24.10;;;13.63;;
7989;SDS011;4040;42.848;23.034;2022-10-22T04:19:25;45.33;;;24.43;;
7989;SDS011;4040;42.848;23.034;2022-10-22T04:25:14;56.13;;;26.07;;
7989;SDS011;4040;42.848;23.034;2022-10-22T04:31:06;28.40;;;14.73;;
7989;SDS011;4040;42.848;23.034;2022-10-22T04:36:56;23.50;;;13.27;;
7989;SDS011;4040;42.848;23.034;2022-10-22T04:42:45;21.07;;;12.73;;
7989;SDS011;4040;42.848;23.034;2022-10-22T04:48:34;20.60;;;12.80;;
7989;SDS011;4040;42.848;23.034;2022-10-22T04:54:24;24.73;;;14.77;;
7989;SDS011;4040;42.848;23.034;2022-10-22T05:00:13;24.77;;;14.90;;
7989;SDS011;4040;42.848;23.034;2022-10-22T05:06:02;33.10;;;17.77;;
7989;SDS011;4040;42.848;23.034;2022-10-22T05:11:52;23.23;;;12.83;;
7989;SDS011;4040;42.848;23.034;2022-10-22T05:22:03;21.73;;;12.97;;
7989;SDS011;4040;42.848;23.034;2022-10-22T05:27:54;25.27;;;14.97;;
7989;SDS011;4040;42.848;23.034;2022-10-22T05:33:42;24.33;;;15.07;;
7989;SDS011;4040;42.848;23.034;2022-10-22T05:39:31;25.33;;;14.93;;
7989;SDS011;4040;42.848;23.034;2022-10-22T05:45:23;25.00;;;14.90;;
7989;SDS011;4040;42.848;23.034;2022-10-22T05:51:12;27.80;;;16.20;;
7989;SDS011;4040;42.848;23.034;2022-10-22T05:57:00;27.60;;;16.13;;
7989;SDS011;4040;42.848;23.034;2022-10-22T06:02:50;29.33;;;15.13;;
7989;SDS011;4040;42.848;23.034;2022-10-22T06:08:39;21.10;;;13.27;;
7989;SDS011;4040;42.848;23.034;2022-10-22T06:14:28;19.17;;;13.10;;
7989;SDS011;4040;42.848;23.034;2022-10-22T06:24:41;26.65;;;14.75;;
7989;SDS011;4040;42.848;23.034;2022-10-22T06:30:29;35.95;;;22.67;;
7989;SDS011;4040;42.848;23.034;2022-10-22T06:36:19;34.97;;;20.55;;
7989;SDS011;4040;42.848;23.034;2022-10-22T06:42:10;36.08;;;23.15;;
7989;SDS011;4040;42.848;23.034;2022-10-22T06:47:59;38.35;;;23.15;;
7989;SDS011;4040;42.848;23.034;2022-10-22T06:53:48;36.53;;;22.33;;
7989;SDS011;4040;42.848;23.034;2022-10-22T06:59:38;111.57;;;51.67;;
7989;SDS011;4040;42.848;23.034;2022-10-22T07:05:27;39.55;;;28.45;;
7989;SDS011;4040;42.848;23.034;2022-10-22T07:11:16;30.02;;;19.10;;
7989;SDS011;4040;42.848;23.034;2022-10-22T07:17:07;31.15;;;17.05;;
7989;SDS011;4040;42.848;23.034;2022-10-22T07:27:18;24.33;;;15.25;;
7989;SDS011;4040;42.848;23.034;2022-10-22T07:33:08;22.90;;;12.70;;
7989;SDS011;4040;42.848;23.034;2022-10-22T07:38:59;16.40;;;12.57;;
7989;SDS011;4040;42.848;23.034;2022-10-22T07:44:48;19.17;;;10.90;;
7989;SDS011;4040;42.848;23.034;2022-10-22T07:50:49;14.73;;;9.63;;
7989;SDS011;4040;42.848;23.034;2022-10-22T07:56:38;14.63;;;10.05;;
7989;SDS011;4040;42.848;23.034;2022-10-22T08:02:27;16.33;;;8.65;;
7989;SDS011;4040;42.848;23.034;2022-10-22T08:08:17;11.10;;;8.48;;
7989;SDS011;4040;42.848;23.034;2022-10-22T08:14:06;10.77;;;8.43;;
7989;SDS011;4040;42.848;23.034;2022-10-22T08:19:55;15.48;;;9.15;;
7989;SDS011;4040;42.848;23.034;2022-10-22T08:29:47;11.48;;;8.77;;
7989;SDS011;4040;42.848;23.034;2022-10-22T08:35:35;14.50;;;9.02;;
7989;SDS011;4040;42.848;23.034;2022-10-22T08:41:24;11.32;;;8.00;;
7989;SDS011;4040;42.848;23.034;2022-10-22T08:47:21;15.93;;;8.45;;
7989;SDS011;4040;42.848;23.034;2022-10-22T08:53:26;11.02;;;8.75;;
7989;SDS011;4040;42.848;23.034;2022-10-22T08:59:20;13.93;;;8.07;;
7989;SDS011;4040;42.848;23.034;2022-10-22T09:05:30;10.27;;;7.68;;
7989;SDS011;4040;42.848;23.034;2022-10-22T09:11:28;11.55;;;7.68;;
7989;SDS011;4040;42.848;23.034;2022-10-22T09:17:20;9.82;;;8.18;;
7989;SDS011;4040;42.848;23.034;2022-10-22T09:23:23;10.48;;;7.68;;
7989;SDS011;4040;42.848;23.034;2022-10-22T09:29:20;10.23;;;7.22;;
7989;SDS011;4040;42.848;23.034;2022-10-22T09:35:13;10.13;;;7.38;;
7989;SDS011;4040;42.848;23.034;2022-10-22T09:41:03;10.52;;;6.72;;
7989;SDS011;4040;42.848;23.034;2022-10-22T09:46:53;10.50;;;6.50;;
7989;SDS011;4040;42.848;23.034;2022-10-22T09:52:42;15.07;;;7.28;;
7989;SDS011;4040;42.848;23.034;2022-10-22T09:58:39;8.52;;;6.25;;
7989;SDS011;4040;42.848;23.034;2022-10-22T10:04:33;13.10;;;6.70;;
7989;SDS011;4040;42.848;23.034;2022-10-22T10:10:34;10.38;;;6.60;;
7989;SDS011;4040;42.848;23.034;2022-10-22T10:16:41;9.70;;;6.20;;
7989;SDS011;4040;42.848;23.034;2022-10-22T10:22:40;7.25;;;5.72;;
7989;SDS011;4040;42.848;23.034;2022-10-22T10:33:04;9.13;;;5.20;;
7989;SDS011;4040;42.848;23.034;2022-10-22T10:39:05;6.05;;;4.57;;
7989;SDS011;4040;42.848;23.034;2022-10-22T10:45:02;6.18;;;4.28;;
7989;SDS011;4040;42.848;23.034;2022-10-22T10:51:04;7.55;;;4.78;;
7989;SDS011;4040;42.848;23.034;2022-10-22T10:57:02;5.15;;;4.40;;
7989;SDS011;4040;42.848;23.034;2022-10-22T11:03:13;7.28;;;4.20;;
7989;SDS011;4040;42.848;23.034;2022-10-22T11:09:29;6.07;;;4.50;;
7989;SDS011;4040;42.848;23.034;2022-10-22T11:15:24;5.00;;;4.50;;
7989;SDS011;4040;42.848;23.034;2022-10-22T11:21:18;4.93;;;4.28;;
7989;SDS011;4040;42.848;23.034;2022-10-22T11:27:18;8.32;;;5.10;;
7989;SDS011;4040;42.848;23.034;2022-10-22T11:33:15;10.35;;;4.65;;
7989;SDS011;4040;42.848;23.034;2022-10-22T11:45:30;7.93;;;4.82;;
7989;SDS011;4040;42.848;23.034;2022-10-22T11:51:28;9.13;;;4.97;;
7989;SDS011;4040;42.848;23.034;2022-10-22T11:57:20;5.18;;;4.32;;
7989;SDS011;4040;42.848;23.034;2022-10-22T12:03:18;6.63;;;4.28;;
7989;SDS011;4040;42.848;23.034;2022-10-22T12:09:11;6.90;;;4.50;;
7989;SDS011;4040;42.848;23.034;2022-10-22T12:15:00;5.13;;;4.40;;
7989;SDS011;4040;42.848;23.034;2022-10-22T12:20:50;8.82;;;5.10;;
7989;SDS011;4040;42.848;23.034;2022-10-22T12:26:40;8.05;;;5.03;;
7989;SDS011;4040;42.848;23.034;2022-10-22T12:32:32;7.10;;;5.10;;
7989;SDS011;4040;42.848;23.034;2022-10-22T12:38:23;9.52;;;7.05;;
7989;SDS011;4040;42.848;23.034;2022-10-22T12:44:13;7.85;;;5.35;;
7989;SDS011;4040;42.848;23.034;2022-10-22T12:50:03;6.93;;;5.00;;
7989;SDS011;4040;42.848;23.034;2022-10-22T12:55:54;8.77;;;4.32;;
7989;SDS011;4040;42.848;23.034;2022-10-22T13:01:48;9.40;;;4.82;;
7989;SDS011;4040;42.848;23.034;2022-10-22T13:07:39;10.95;;;5.57;;
7989;SDS011;4040;42.848;23.034;2022-10-22T13:13:32;7.10;;;4.72;;
7989;SDS011;4040;42.848;23.034;2022-10-22T13:19:35;13.77;;;7.25;;
7989;SDS011;4040;42.848;23.034;2022-10-22T13:25:32;6.13;;;5.45;;
7989;SDS011;4040;42.848;23.034;2022-10-22T13:35:46;6.90;;;4.75;;
7989;SDS011;4040;42.848;23.034;2022-10-22T13:41:36;5.85;;;4.63;;
7989;SDS011;4040;42.848;23.034;2022-10-22T13:47:27;8.50;;;5.43;;
7989;SDS011;4040;42.848;23.034;2022-10-22T13:53:19;10.02;;;6.22;;
7989;SDS011;4040;42.848;23.034;2022-10-22T13:59:10;10.07;;;5.22;;
7989;SDS011;4040;42.848;23.034;2022-10-22T14:04:59;8.77;;;5.35;;
7989;SDS011;4040;42.848;23.034;2022-10-22T14:10:51;8.02;;;6.13;;
7989;SDS011;4040;42.848;23.034;2022-10-22T14:16:41;12.80;;;6.35;;
7989;SDS011;4040;42.848;23.034;2022-10-22T14:22:29;10.35;;;6.38;;
7989;SDS011;4040;42.848;23.034;2022-10-22T14:28:19;9.82;;;6.80;;
7989;SDS011;4040;42.848;23.034;2022-10-22T14:38:30;9.65;;;6.55;;
7989;SDS011;4040;42.848;23.034;2022-10-22T14:44:20;11.70;;;6.38;;
7989;SDS011;4040;42.848;23.034;2022-10-22T14:50:10;12.25;;;6.75;;
7989;SDS011;4040;42.848;23.034;2022-10-22T14:55:59;11.68;;;7.40;;
7989;SDS011;4040;42.848;23.034;2022-10-22T15:01:49;11.25;;;7.00;;
7989;SDS011;4040;42.848;23.034;2022-10-22T15:07:38;19.48;;;10.73;;
7989;SDS011;4040;42.848;23.034;2022-10-22T15:13:27;14.65;;;10.57;;
7989;SDS011;4040;42.848;23.034;2022-10-22T15:19:18;20.60;;;14.05;;
7989;SDS011;4040;42.848;23.034;2022-10-22T15:25:07;37.08;;;15.02;;
7989;SDS011;4040;42.848;23.034;2022-10-22T15:30:57;43.00;;;24.58;;
7989;SDS011;4040;42.848;23.034;2022-10-22T15:41:10;43.63;;;26.77;;
7989;SDS011;4040;42.848;23.034;2022-10-22T15:47:00;52.85;;;31.80;;
7989;SDS011;4040;42.848;23.034;2022-10-22T15:52:52;52.30;;;27.02;;
7989;SDS011;4040;42.848;23.034;2022-10-22T15:58:43;60.20;;;33.42;;
7989;SDS011;4040;42.848;23.034;2022-10-22T16:04:31;69.07;;;31.13;;
7989;SDS011;4040;42.848;23.034;2022-10-22T16:10:20;95.00;;;44.83;;
7989;SDS011;4040;42.848;23.034;2022-10-22T16:16:10;102.95;;;48.70;;
7989;SDS011;4040;42.848;23.034;2022-10-22T16:21:59;95.22;;;46.70;;
7989;SDS011;4040;42.848;23.034;2022-10-22T16:27:49;93.30;;;43.00;;
7989;SDS011;4040;42.848;23.034;2022-10-22T16:33:39;78.32;;;41.78;;
7989;SDS011;4040;42.848;23.034;2022-10-22T16:43:51;112.35;;;61.30;;
7989;SDS011;4040;42.848;23.034;2022-10-22T16:49:43;87.07;;;47.72;;
7989;SDS011;4040;42.848;23.034;2022-10-22T16:55:34;99.57;;;41.42;;
7989;SDS011;4040;42.848;23.034;2022-10-22T17:01:23;160.90;;;84.20;;
7989;SDS011;4040;42.848;23.034;2022-10-22T17:07:16;113.97;;;52.80;;
7989;SDS011;4040;42.848;23.034;2022-10-22T17:13:04;117.63;;;53.33;;
7989;SDS011;4040;42.848;23.034;2022-10-22T17:18:53;104.88;;;56.55;;
7989;SDS011;4040;42.848;23.034;2022-10-22T17:24:44;59.92;;;31.60;;
7989;SDS011;4040;42.848;23.034;2022-10-22T17:30:32;63.05;;;34.55;;
7989;SDS011;4040;42.848;23.034;2022-10-22T17:36:24;28.50;;;14.57;;
7989;SDS011;4040;42.848;23.034;2022-10-22T17:46:37;46.40;;;24.90;;
7989;SDS011;4040;42.848;23.034;2022-10-22T17:52:26;57.37;;;29.47;;
7989;SDS011;4040;42.848;23.034;2022-10-22T17:58:15;54.93;;;31.23;;
7989;SDS011;4040;42.848;23.034;2022-10-22T18:04:06;47.67;;;29.37;;
7989;SDS011;4040;42.848;23.034;2022-10-22T18:09:56;25.53;;;15.37;;
7989;SDS011;4040;42.848;23.034;2022-10-22T18:15:45;18.87;;;12.77;;
7989;SDS011;4040;42.848;23.034;2022-10-22T18:21:42;22.03;;;11.47;;
7989;SDS011;4040;42.848;23.034;2022-10-22T18:27:31;33.97;;;18.77;;
7989;SDS011;4040;42.848;23.034;2022-10-22T18:33:21;62.60;;;30.13;;
7989;SDS011;4040;42.848;23.034;2022-10-22T18:39:12;91.40;;;37.93;;
7989;SDS011;4040;42.848;23.034;2022-10-22T18:49:24;53.10;;;25.40;;
7989;SDS011;4040;42.848;23.034;2022-10-22T18:55:34;63.87;;;26.90;;
7989;SDS011;4040;42.848;23.034;2022-10-22T19:01:26;117.10;;;50.87;;
7989;SDS011;4040;42.848;23.034;2022-10-22T19:07:16;85.83;;;41.07;;
7989;SDS011;4040;42.848;23.034;2022-10-22T19:13:06;81.17;;;42.30;;
7989;SDS011;4040;42.848;23.034;2022-10-22T19:18:58;24.53;;;12.83;;
7989;SDS011;4040;42.848;23.034;2022-10-22T19:24:48;29.23;;;16.60;;
7989;SDS011;4040;42.848;23.034;2022-10-22T19:30:40;40.37;;;21.97;;
7989;SDS011;4040;42.848;23.034;2022-10-22T19:36:30;52.67;;;27.57;;
7989;SDS011;4040;42.848;23.034;2022-10-22T19:42:19;50.67;;;27.27;;
7989;SDS011;4040;42.848;23.034;2022-10-22T19:52:11;55.73;;;28.30;;
7989;SDS011;4040;42.848;23.034;2022-10-22T19:58:00;63.17;;;29.30;;
7989;SDS011;4040;42.848;23.034;2022-10-22T20:03:49;43.90;;;22.60;;
7989;SDS011;4040;42.848;23.034;2022-10-22T20:09:39;40.97;;;20.77;;
7989;SDS011;4040;42.848;23.034;2022-10-22T20:15:30;32.17;;;18.47;;
7989;SDS011;4040;42.848;23.034;2022-10-22T20:21:19;33.40;;;18.53;;
7989;SDS011;4040;42.848;23.034;2022-10-22T20:27:10;27.10;;;15.93;;
7989;SDS011;4040;42.848;23.034;2022-10-22T20:33:00;37.67;;;18.67;;
7989;SDS011;4040;42.848;23.034;2022-10-22T20:38:49;33.57;;;17.00;;
7989;SDS011;4040;42.848;23.034;2022-10-22T20:44:40;27.13;;;15.23;;
7989;SDS011;4040;42.848;23.034;2022-10-22T20:54:40;28.00;;;16.07;;
7989;SDS011;4040;42.848;23.034;2022-10-22T21:00:33;22.13;;;12.93;;
7989;SDS011;4040;42.848;23.034;2022-10-22T21:06:21;19.97;;;11.80;;
7989;SDS011;4040;42.848;23.034;2022-10-22T21:12:10;19.67;;;11.87;;
7989;SDS011;4040;42.848;23.034;2022-10-22T21:18:00;18.83;;;11.10;;
7989;SDS011;4040;42.848;23.034;2022-10-22T21:23:49;14.73;;;10.43;;
7989;SDS011;4040;42.848;23.034;2022-10-22T21:29:38;21.03;;;11.97;;
7989;SDS011;4040;42.848;23.034;2022-10-22T21:35:28;25.63;;;14.70;;
7989;SDS011;4040;42.848;23.034;2022-10-22T21:41:19;20.23;;;13.10;;
7989;SDS011;4040;42.848;23.034;2022-10-22T21:47:08;17.50;;;12.20;;
7989;SDS011;4040;42.848;23.034;2022-10-22T21:57:20;20.93;;;13.60;;
7989;SDS011;4040;42.848;23.034;2022-10-22T22:08:30;21.87;;;13.80;;
7989;SDS011;4040;42.848;23.034;2022-10-22T22:14:19;23.60;;;13.73;;
7989;SDS011;4040;42.848;23.034;2022-10-22T22:20:08;20.43;;;14.13;;
7989;SDS011;4040;42.848;23.034;2022-10-22T22:25:59;29.53;;;16.03;;
7989;SDS011;4040;42.848;23.034;2022-10-22T22:31:49;38.63;;;20.83;;
7989;SDS011;4040;42.848;23.034;2022-10-22T22:37:38;20.10;;;13.03;;
7989;SDS011;4040;42.848;23.034;2022-10-22T22:43:28;16.67;;;11.83;;
7989;SDS011;4040;42.848;23.034;2022-10-22T22:49:16;20.63;;;12.87;;
7989;SDS011;4040;42.848;23.034;2022-10-22T22:55:05;20.70;;;12.27;;
7989;SDS011;4040;42.848;23.034;2022-10-22T23:01:05;24.10;;;13.23;;
7989;SDS011;4040;42.848;23.034;2022-10-22T23:07:16;17.87;;;11.80;;
7989;SDS011;4040;42.848;23.034;2022-10-22T23:13:05;17.83;;;11.30;;
7989;SDS011;4040;42.848;23.034;2022-10-22T23:18:55;21.97;;;13.07;;
7989;SDS011;4040;42.848;23.034;2022-10-22T23:24:45;19.10;;;12.00;;
7989;SDS011;4040;42.848;23.034;2022-10-22T23:30:34;27.30;;;14.30;;
7989;SDS011;4040;42.848;23.034;2022-10-22T23:36:28;17.73;;;12.40;;
7989;SDS011;4040;42.848;23.034;2022-10-22T23:42:17;20.07;;;12.43;;
7989;SDS011;4040;42.848;23.034;2022-10-22T23:48:05;14.83;;;9.97;;
7989;SDS011;4040;42.848;23.034;2022-10-22T23:53:57;15.10;;;9.70;;
7989;SDS011;4040;42.848;23.034;2022-10-22T23:59:46;14.17;;;8.53;;
